CheckWX is a tool to help pilots better visualize weather data.  It is not intended as a substitute for an official pre-flight weather briefing.

14:38:44 UTC

KTRI TAF
Tri-Cities Airport
Bristol/Johnson/Kingsport, Tennessee, USA
KTRI 211120Z 2112/2212 36004KT P6SM FEW250 FM211800 36004KT P6SM SKC FM220000 VRB01KT P6SM SKC

Feb-21@
12:00 UTC

Feb-21 @ 12:00 UTC

Feb-21@
18:00 UTC

Feb-21 @ 18:00 UTC

KTRI 211120Z 2112/2212 36004KT P6SM FEW250
Wind
  • 360° at 4 KTS
Cloud Levels
  • Few at 25,000' AGL

Feb-21@
18:00 UTC

Feb-21 @ 18:00 UTC

Feb-22@
00:00 UTC

Feb-22 @ 00:00 UTC

FM211800 36004KT P6SM SKC

From

From Standard forecast or significant change

Wind
  • 360° at 4 KTS
Cloud Levels
  • Clear skies

Feb-22@
00:00 UTC

Feb-22 @ 00:00 UTC

Feb-22@
12:00 UTC

Feb-22 @ 12:00 UTC

FM220000 VRB01KT P6SM SKC

From

From Standard forecast or significant change

Wind
  • Variable at 1 KTS
Cloud Levels
  • Clear skies